10:23
Airports
History
Links
Donate
Help keep this website running!
PayPal
Bitcoin
This page is community maintained. The information is intended for PC simulator navigation or reference.
Always use approved charts for navigation.
SWEC
ESTANCIA DAS CASCATAS
ESTANCIA DAS CASCATAS (SWEC)
Aragarças, Goiás, Brazil (76240)
(U)
Lat/Lng:15° 53' 48.25" S / 52° 5' 44.03" W
-15.896735 / -52.095564
Elevation:1017'ft / 310mMSL
ID / ICAO:SWEC
Runways:1
Longest:03-21
Asphalt 1,094m / 3,591ft
Nearby Weather21:00 GMT 2017-09-22
Nearby weather at SBBW, BARRA DO GARCAS located 19.6 nautical miles from SWEC
Altimeter: 29.88
Visibility: 6.2 statute miles
Wind: 2 knots (from 090°)
Temp: 33°c / 91°f
Humidity: 27.9%

METAR: SBBW 222100Z 09002KT 9999 FEW020 33/12 Q1012

(Powered by phpweather)
Runway 03 / 21
Dimensions:1094.4 x 7.9m 3591' x 26'ft
Surface:Asphalt
Runway 03 [A]Runway 21 [B]
Heading:012°TH 192°TH
Lat:
Lng:
15° 54' 5.56"S
52° 5' 47.86"W
15° 53' 30.93"S
52° 5' 40.2"W
User Notes and Comments
15° 53' 48.25" S / 52° 5' 44.03" W
Distance To
Airport ID:
Nearby Airports
(U) Aragarcas 9.9 NM
SJVO W 269°
(U) FAZENDA AGROCENTRO 18.4 NM
SWWL NW 321°
(C) BARRA DO GARCAS 19.6 NM
SBBW ( WX ) W 277°
(C) Araguaiana 21.0 NM
SWAY NE 55°
4 Fazenda Eldorado 23.6 NM
SWDB NNW 339°
4 Fazenda Santo Antonio 26.6 NM
SWSD NE 44°
4 Fazenda Tres Ranchos 32.4 NM
SWIM ESE 119°
VFR Chart
Flight Planning at SkyVector.com